Time;durP1;ratioP1;P1;durP2;ratioP2;P2;SDS_P1;SDS_P2;PMS_P1;PMS_P2;Temp;Humidity;BMP_temperature;BMP_pressure;BME280_temperature;BME280_humidity;BME280_pressure;Samples;Min_cycle;Max_cycle;Signal;HPM_P1;HPM_P2
2021/08/03 00:01:51;;;;;;;19.88;16.13;;;19.70;99.90;;;;;;5063873;28;20021;-90
2021/08/03 00:04:20;;;;;;;18.55;14.80;;;19.80;99.90;;;;;;5059631;28;20016;-89
2021/08/03 00:06:51;;;;;;;18.63;14.60;;;19.70;99.90;;;;;;5055697;28;20036;-90
2021/08/03 00:09:18;;;;;;;16.75;15.05;;;19.70;99.90;;;;;;5056532;28;20097;-90
2021/08/03 00:11:45;;;;;;;18.10;14.83;;;19.70;99.90;;;;;;5059021;28;20013;-90
2021/08/03 00:14:11;;;;;;;18.08;14.07;;;19.70;99.90;;;;;;5056645;28;20076;-91
2021/08/03 00:16:40;;;;;;;15.50;13.75;;;19.60;99.90;;;;;;5057831;28;20456;-90
2021/08/03 00:19:06;;;;;;;18.73;14.80;;;19.60;99.90;;;;;;5035573;28;20040;-91
2021/08/03 00:21:34;;;;;;;16.77;13.65;;;19.60;99.90;;;;;;5056236;28;20025;-89
2021/08/03 00:24:00;;;;;;;;;;;19.60;99.90;;;;;;5064256;28;20477;-90
2021/08/03 00:26:26;;;;;;;18.35;13.35;;;19.60;99.90;;;;;;5063738;28;19909;-88
2021/08/03 00:28:52;;;;;;;16.98;12.68;;;19.50;99.90;;;;;;5060423;28;20025;-91
2021/08/03 00:31:21;;;;;;;18.20;13.40;;;19.50;99.90;;;;;;5068409;28;20059;-91
2021/08/03 00:33:49;;;;;;;14.48;13.02;;;19.50;99.90;;;;;;5068195;28;20076;-89
2021/08/03 00:36:16;;;;;;;14.73;13.18;;;19.50;99.90;;;;;;5064876;28;20017;-90
2021/08/03 00:38:42;;;;;;;14.07;12.57;;;19.50;99.90;;;;;;5074806;28;20041;-90
2021/08/03 00:41:22;;;;;;;14.15;12.65;;;19.40;99.90;;;;;;5078121;28;20025;-90
2021/08/03 00:43:48;;;;;;;15.25;12.68;;;19.40;99.90;;;;;;5053795;28;20039;-90
2021/08/03 00:46:14;;;;;;;14.95;12.27;;;19.30;99.90;;;;;;5064962;28;20020;-90
2021/08/03 00:48:40;;;;;;;13.48;11.68;;;19.30;99.90;;;;;;5055757;28;20028;-90
2021/08/03 00:51:06;;;;;;;15.25;11.95;;;19.30;99.90;;;;;;5055556;28;20398;-90
2021/08/03 00:53:32;;;;;;;17.23;10.88;;;19.20;99.90;;;;;;5055330;28;20028;-90
2021/08/03 00:56:00;;;;;;;12.85;10.95;;;19.30;99.90;;;;;;5055611;28;20501;-90
2021/08/03 00:58:26;;;;;;;19.27;12.05;;;19.20;99.90;;;;;;5055212;28;20033;-90
2021/08/03 01:00:53;;;;;;;12.82;10.75;;;19.20;99.90;;;;;;5055681;28;20536;-91
2021/08/03 01:03:20;;;;;;;11.05;8.35;;;19.20;99.90;;;;;;5055327;28;20034;-91
2021/08/03 01:06:04;;;;;;;12.43;9.13;;;19.10;99.90;;;;;;5055542;28;20029;-91
2021/08/03 01:08:57;;;;;;;10.32;8.45;;;19.10;99.90;;;;;;5055538;28;20025;-88
2021/08/03 01:11:40;;;;;;;13.48;9.13;;;19.00;99.90;;;;;;5055302;28;20039;-90
2021/08/03 01:14:25;;;;;;;12.52;9.60;;;19.00;99.90;;;;;;5037762;28;20103;-91
2021/08/03 01:16:54;;;;;;;11.48;8.57;;;19.00;99.90;;;;;;5055891;28;20036;-90
2021/08/03 01:19:57;;;;;;;13.07;8.68;;;18.90;99.90;;;;;;5040507;28;20059;-91
2021/08/03 01:22:40;;;;;;;10.27;8.60;;;18.90;99.90;;;;;;5041850;28;20025;-92
2021/08/03 01:25:17;;;;;;;11.45;7.30;;;18.90;99.90;;;;;;5041344;28;20028;-91
2021/08/03 01:28:20;;;;;;;13.32;8.10;;;18.80;99.90;;;;;;5053516;28;20029;-90
2021/08/03 01:30:54;;;;;;;13.40;8.20;;;18.80;99.90;;;;;;5056351;28;20021;-90
2021/08/03 01:33:25;;;;;;;11.48;8.45;;;18.80;99.90;;;;;;5059363;28;20390;-91
2021/08/03 01:35:55;;;;;;;11.30;7.72;;;18.80;99.90;;;;;;5041146;28;20088;-91
2021/08/03 01:38:23;;;;;;;9.45;7.95;;;18.80;99.90;;;;;;5060634;28;20025;-89
2021/08/03 01:40:52;;;;;;;9.77;8.18;;;18.70;99.90;;;;;;5063518;28;20025;-92
2021/08/03 01:43:18;;;;;;;8.60;7.47;;;18.70;99.90;;;;;;5069015;28;20414;-90
2021/08/03 01:45:47;;;;;;;8.63;7.72;;;18.70;99.90;;;;;;5076724;28;20021;-90
2021/08/03 01:48:14;;;;;;;9.55;7.53;;;18.70;99.90;;;;;;5061885;28;20029;-91
2021/08/03 01:50:43;;;;;;;9.93;7.88;;;18.70;99.90;;;;;;5052370;28;20463;-91
2021/08/03 01:53:10;;;;;;;13.93;8.35;;;18.70;99.90;;;;;;5039997;28;20036;-90
2021/08/03 01:55:36;;;;;;;12.77;8.70;;;18.80;99.90;;;;;;5063136;28;20017;-92
2021/08/03 01:58:03;;;;;;;11.02;7.00;;;18.80;99.90;;;;;;5042439;28;20139;-90
2021/08/03 02:00:30;;;;;;;10.23;8.13;;;18.80;99.90;;;;;;5060177;28;20024;-91
2021/08/03 02:02:57;;;;;;;11.38;8.48;;;18.80;99.90;;;;;;5038827;28;20402;-91
2021/08/03 02:05:24;;;;;;;26.58;19.50;;;18.80;99.90;;;;;;5059116;28;20463;-91
2021/08/03 02:07:51;;;;;;;13.02;7.97;;;18.80;99.90;;;;;;5059086;28;20516;-91
2021/08/03 02:10:20;;;;;;;9.07;8.15;;;18.90;99.90;;;;;;5059222;28;20029;-92
2021/08/03 02:12:49;;;;;;;10.93;8.60;;;18.90;99.90;;;;;;5059753;28;20147;-91
2021/08/03 02:15:15;;;;;;;13.57;7.07;;;18.90;99.90;;;;;;5063403;28;20025;-90
2021/08/03 02:17:42;;;;;;;9.00;7.50;;;18.90;99.90;;;;;;5061738;28;20041;-88
2021/08/03 02:20:08;;;;;;;8.07;7.25;;;18.80;99.90;;;;;;5059407;28;20493;-92
2021/08/03 02:22:35;;;;;;;8.40;6.40;;;18.80;99.90;;;;;;5058624;28;20056;-92
2021/08/03 02:25:01;;;;;;;10.30;7.70;;;18.80;99.90;;;;;;5041089;28;20056;-90
2021/08/03 02:27:27;;;;;;;10.30;6.93;;;18.80;99.90;;;;;;5049947;28;20124;-87
2021/08/03 02:29:53;;;;;;;10.77;6.70;;;18.90;99.90;;;;;;5043074;28;20065;-90
2021/08/03 02:32:30;;;;;;;10.23;7.32;;;18.80;99.90;;;;;;5038937;28;20026;-89
2021/08/03 02:35:09;;;;;;;8.60;6.63;;;18.80;99.90;;;;;;5051708;28;20028;-91
2021/08/03 02:37:38;;;;;;;15.00;7.50;;;18.80;99.90;;;;;;5037073;28;20444;-89
2021/08/03 02:40:08;;;;;;;6.88;5.60;;;18.70;99.90;;;;;;5059706;28;20049;-89
2021/08/03 02:42:38;;;;;;;9.65;6.63;;;18.70;99.90;;;;;;5042487;28;20080;-89
2021/08/03 02:45:05;;;;;;;10.02;6.20;;;18.80;99.90;;;;;;5059356;28;20025;-92
2021/08/03 02:47:50;;;;;;;9.15;5.07;;;18.80;99.90;;;;;;5049034;28;20033;-91
2021/08/03 02:50:17;;;;;;;8.18;6.43;;;18.80;99.90;;;;;;5044821;28;20071;-93
2021/08/03 02:52:47;;;;;;;6.15;5.53;;;18.90;99.90;;;;;;5043589;28;20031;-91
2021/08/03 02:55:22;;;;;;;8.20;5.28;;;19.00;99.90;;;;;;5057770;28;20064;-90
2021/08/03 02:57:56;;;;;;;8.93;4.28;;;19.10;99.90;;;;;;5040509;28;20390;-89
2021/08/03 03:00:24;;;;;;;7.22;4.63;;;19.20;99.90;;;;;;5058388;28;20017;-93
2021/08/03 03:02:50;;;;;;;;;;;19.20;99.90;;;;;;5052812;28;20037;-91
2021/08/03 03:05:31;;;;;;;6.43;3.90;;;19.20;99.90;;;;;;5060698;28;20367;-91
2021/08/03 03:08:12;;;;;;;4.22;3.78;;;19.20;99.90;;;;;;5060288;28;20021;-90
2021/08/03 03:10:49;;;;;;;4.40;3.70;;;19.30;99.90;;;;;;5063038;28;20077;-90
2021/08/03 03:13:23;;;;;;;8.82;3.88;;;19.30;99.90;;;;;;5059298;28;20079;-89
2021/08/03 03:15:50;;;;;;;7.05;3.67;;;19.30;99.90;;;;;;5046858;28;20072;-89
2021/08/03 03:18:18;;;;;;;5.07;3.38;;;19.20;99.90;;;;;;5055402;28;20034;-91
2021/08/03 03:20:45;;;;;;;4.53;4.05;;;19.20;99.90;;;;;;5069676;28;20029;-89
2021/08/03 03:23:15;;;;;;;5.28;3.80;;;19.30;99.90;;;;;;5060319;28;20036;-91
2021/08/03 03:25:43;;;;;;;3.83;3.28;;;19.30;99.90;;;;;;5058363;28;20032;-89
2021/08/03 03:28:09;;;;;;;;;;;19.40;99.90;;;;;;5040964;28;20025;-90
2021/08/03 03:30:35;;;;;;;4.18;2.90;;;19.50;99.90;;;;;;5040645;28;19944;-89
2021/08/03 03:33:04;;;;;;;8.63;2.90;;;19.50;99.90;;;;;;5044260;28;20029;-92
2021/08/03 03:35:34;;;;;;;4.88;3.15;;;19.60;99.90;;;;;;5048398;28;20051;-90
2021/08/03 03:38:01;;;;;;;3.75;2.67;;;19.60;99.90;;;;;;5069874;28;20017;-90
2021/08/03 03:40:28;;;;;;;3.70;2.33;;;19.80;99.90;;;;;;5069459;28;20029;-89
2021/08/03 03:42:56;;;;;;;6.75;3.90;;;19.90;99.90;;;;;;5072289;28;20048;-90
2021/08/03 03:45:22;;;;;;;7.18;2.63;;;19.90;99.90;;;;;;5047716;28;20020;-91
2021/08/03 03:48:05;;;;;;;3.90;2.15;;;20.00;99.90;;;;;;5040886;28;20088;-91
2021/08/03 03:50:36;;;;;;;4.40;2.30;;;19.90;99.90;;;;;;5059012;28;20021;-90
2021/08/03 03:53:18;;;;;;;7.45;2.10;;;20.00;99.90;;;;;;5057437;28;20017;-90
2021/08/03 03:56:11;;;;;;;4.18;2.50;;;20.00;99.90;;;;;;5036966;28;20088;-90
2021/08/03 03:58:41;;;;;;;5.50;2.38;;;20.10;99.90;;;;;;5041591;28;20033;-89
2021/08/03 04:01:11;;;;;;;3.88;2.00;;;20.30;99.90;;;;;;5037452;28;20025;-89
2021/08/03 04:03:37;;;;;;;3.65;2.30;;;20.40;99.90;;;;;;5065273;28;20029;-91
2021/08/03 04:06:06;;;;;;;6.68;2.17;;;20.60;99.90;;;;;;5073031;28;20013;-88
2021/08/03 04:08:31;;;;;;;2.22;1.80;;;20.70;99.90;;;;;;5073968;28;20055;-90
2021/08/03 04:11:01;;;;;;;4.07;1.80;;;20.70;99.60;;;;;;5049084;28;20025;-89
2021/08/03 04:13:28;;;;;;;1.92;1.58;;;20.80;99.00;;;;;;5043705;28;20071;-87
2021/08/03 04:15:54;;;;;;;2.00;1.57;;;21.00;98.60;;;;;;5063159;28;20017;-89
2021/08/03 04:18:20;;;;;;;5.07;1.75;;;21.20;98.40;;;;;;5065457;28;20039;-89
2021/08/03 04:20:45;;;;;;;6.53;1.55;;;21.40;97.40;;;;;;5047392;28;20035;-88
2021/08/03 04:23:11;;;;;;;5.75;1.92;;;21.50;95.70;;;;;;5047357;28;20037;-88
2021/08/03 04:25:37;;;;;;;3.80;1.10;;;21.40;95.60;;;;;;5062502;28;20039;-91
2021/08/03 04:28:03;;;;;;;4.60;1.55;;;21.40;95.20;;;;;;5063449;28;20021;-89
2021/08/03 04:30:29;;;;;;;2.05;1.48;;;21.40;95.70;;;;;;5062643;28;20501;-90
2021/08/03 04:32:55;;;;;;;9.10;2.03;;;21.30;94.80;;;;;;5061392;28;20032;-90
2021/08/03 04:35:21;;;;;;;1.70;1.23;;;21.20;94.80;;;;;;5062306;28;20106;-89
2021/08/03 04:37:48;;;;;;;2.65;1.42;;;21.20;94.80;;;;;;5063613;28;20016;-90
2021/08/03 04:40:16;;;;;;;3.28;1.23;;;21.10;94.30;;;;;;5041731;28;20025;-91
2021/08/03 04:42:42;;;;;;;4.05;1.67;;;21.00;94.60;;;;;;5038118;28;20068;-90
2021/08/03 04:45:09;;;;;;;1.80;1.60;;;20.90;95.40;;;;;;5057479;28;20017;-91
2021/08/03 04:47:43;;;;;;;6.28;2.20;;;20.90;95.40;;;;;;5057954;28;20030;-90
2021/08/03 04:50:15;;;;;;;5.53;2.13;;;20.90;96.10;;;;;;5039285;28;20102;-92
2021/08/03 04:52:41;;;;;;;8.13;2.75;;;20.90;96.70;;;;;;5039911;28;20039;-90
2021/08/03 04:55:07;;;;;;;5.47;2.83;;;21.00;97.00;;;;;;5058716;28;20036;-89
2021/08/03 04:57:34;;;;;;;9.57;5.80;;;21.10;97.00;;;;;;5047676;28;20065;-88
2021/08/03 05:00:00;;;;;;;5.47;2.80;;;21.20;96.90;;;;;;5042401;28;20390;-92
2021/08/03 05:02:26;;;;;;;5.93;2.88;;;21.40;96.50;;;;;;5044269;28;20101;-90
2021/08/03 05:04:52;;;;;;;4.65;2.78;;;21.50;96.50;;;;;;5059332;28;20025;-89
2021/08/03 05:07:17;;;;;;;5.07;2.72;;;21.60;96.70;;;;;;5045277;28;20028;-92
2021/08/03 05:09:43;;;;;;;5.28;2.90;;;21.60;95.90;;;;;;5047023;28;20025;-94
2021/08/03 05:12:09;;;;;;;6.95;3.65;;;21.70;95.20;;;;;;5046890;28;20093;-92
2021/08/03 05:14:35;;;;;;;3.92;2.88;;;21.70;95.80;;;;;;5067691;28;20056;-93
2021/08/03 05:17:01;;;;;;;6.40;2.45;;;21.70;95.40;;;;;;5069741;28;20112;-92
2021/08/03 05:19:27;;;;;;;5.60;2.40;;;21.70;95.40;;;;;;5064878;28;20040;-90
2021/08/03 05:21:53;;;;;;;5.13;3.03;;;21.70;95.40;;;;;;5062043;28;20055;-93
2021/08/03 05:24:25;;;;;;;5.18;2.22;;;21.70;95.60;;;;;;5067314;28;20029;-90
2021/08/03 05:26:53;;;;;;;4.45;2.53;;;21.80;94.90;;;;;;5065714;28;20021;-92
2021/08/03 05:29:19;;;;;;;9.63;2.38;;;21.80;94.60;;;;;;5067928;28;20017;-92
2021/08/03 05:31:44;;;;;;;3.65;2.42;;;21.90;94.10;;;;;;5060555;28;20227;-91
2021/08/03 05:34:10;;;;;;;2.92;1.92;;;21.90;94.20;;;;;;5039980;28;20441;-90
2021/08/03 05:36:36;;;;;;;6.60;2.33;;;22.10;94.40;;;;;;5042852;28;20022;-93
2021/08/03 05:39:02;;;;;;;5.30;3.42;;;22.20;93.90;;;;;;5055900;28;20478;-92
2021/08/03 05:41:28;;;;;;;3.83;1.88;;;22.30;93.50;;;;;;5065040;28;20087;-91
2021/08/03 05:43:54;;;;;;;4.75;2.00;;;22.40;93.40;;;;;;5043137;28;20040;-94
2021/08/03 05:46:21;;;;;;;7.40;2.15;;;22.60;93.10;;;;;;5062561;28;20068;-93
2021/08/03 05:48:48;;;;;;;5.63;1.88;;;22.70;92.50;;;;;;5017383;28;20028;-91
2021/08/03 05:51:15;;;;;;;3.08;1.75;;;22.70;91.60;;;;;;5067184;28;20017;-92
2021/08/03 05:53:41;;;;;;;4.45;2.50;;;22.60;91.40;;;;;;5046758;28;20029;-93
2021/08/03 05:56:08;;;;;;;2.25;1.50;;;22.50;91.80;;;;;;5043249;28;20052;-92
2021/08/03 05:58:34;;;;;;;5.93;1.40;;;22.50;91.30;;;;;;5044000;28;20490;-92
2021/08/03 06:01:00;;;;;;;5.57;1.95;;;22.60;91.10;;;;;;5041026;28;20032;-91
2021/08/03 06:03:27;;;;;;;3.15;2.03;;;22.80;91.80;;;;;;5058182;28;20045;-92
2021/08/03 06:05:52;;;;;;;3.72;1.73;;;23.30;90.90;;;;;;5059461;28;20041;-91
2021/08/03 06:08:24;;;;;;;6.80;1.38;;;24.00;89.10;;;;;;5062413;28;20032;-89
2021/08/03 06:10:52;;;;;;;1.42;1.30;;;24.20;85.10;;;;;;5066983;28;20040;-94
2021/08/03 06:13:25;;;;;;;4.18;1.48;;;24.20;84.40;;;;;;5044875;28;20049;-90
2021/08/03 06:15:52;;;;;;;2.72;1.48;;;24.10;84.30;;;;;;5038763;28;20021;-91
2021/08/03 06:18:36;;;;;;;3.65;1.60;;;24.00;85.20;;;;;;5056167;28;20028;-92
2021/08/03 06:21:02;;;;;;;7.85;1.30;;;23.90;83.50;;;;;;5050168;28;20029;-93
2021/08/03 06:23:29;;;;;;;2.40;1.20;;;23.70;85.20;;;;;;5051908;28;20090;-94
2021/08/03 06:26:00;;;;;;;7.05;1.77;;;23.60;86.60;;;;;;5052566;28;20020;-91
2021/08/03 06:28:26;;;;;;;5.80;1.60;;;23.40;85.80;;;;;;5062475;28;20025;-91
2021/08/03 06:30:52;;;;;;;5.57;1.40;;;23.50;86.30;;;;;;5062079;28;20009;-90
2021/08/03 06:33:21;;;;;;;3.00;1.58;;;24.00;85.00;;;;;;5076025;28;20021;-91
2021/08/03 06:35:48;;;;;;;2.25;1.10;;;24.90;82.50;;;;;;5074064;28;20027;-89
2021/08/03 06:38:14;;;;;;;3.13;1.20;;;25.20;79.00;;;;;;5062286;28;20047;-92
2021/08/03 06:40:48;;;;;;;1.77;1.40;;;25.00;78.90;;;;;;5071076;28;20021;-92
2021/08/03 06:43:18;;;;;;;1.92;1.02;;;24.70;79.70;;;;;;5064131;28;20021;-90
2021/08/03 06:45:48;;;;;;;3.08;1.20;;;24.40;80.30;;;;;;5057680;28;20025;-91
2021/08/03 06:48:22;;;;;;;4.07;1.38;;;25.00;80.10;;;;;;5031406;28;20021;-90
2021/08/03 06:51:10;;;;;;;8.48;1.98;;;26.70;77.70;;;;;;5065437;28;20477;-93
2021/08/03 06:53:37;;;;;;;2.38;1.23;;;29.50;71.50;;;;;;5033685;28;20044;-91
2021/08/03 06:56:04;;;;;;;4.50;1.30;;;31.50;59.50;;;;;;5027402;28;20052;-92
2021/08/03 06:58:31;;;;;;;;;;;31.70;57.40;;;;;;5045133;28;20052;-93
2021/08/03 07:00:59;;;;;;;3.05;1.50;;;30.60;77.20;;;;;;5062907;28;19912;-93
2021/08/03 07:03:30;;;;;;;2.88;1.30;;;31.20;60.60;;;;;;5060662;28;20055;-92
2021/08/03 07:05:57;;;;;;;3.50;1.58;;;31.80;56.70;;;;;;5047524;28;20047;-92
2021/08/03 07:08:25;;;;;;;3.45;1.20;;;31.90;56.50;;;;;;5066782;28;20032;-91
2021/08/03 07:10:53;;;;;;;3.80;1.40;;;31.00;56.20;;;;;;5049987;28;20052;-93
2021/08/03 07:13:20;;;;;;;4.32;1.40;;;30.70;57.90;;;;;;5070359;28;20041;-92
2021/08/03 07:15:46;;;;;;;;;;;30.50;58.70;;;;;;5044578;28;20025;-91
2021/08/03 07:18:13;;;;;;;5.95;1.38;;;30.20;72.60;;;;;;5069481;28;19915;-92
2021/08/03 07:20:42;;;;;;;2.65;1.10;;;30.60;59.40;;;;;;5054393;28;20017;-93
2021/08/03 07:23:10;;;;;;;7.93;1.75;;;30.90;57.60;;;;;;5055429;28;20017;-91
2021/08/03 07:25:36;;;;;;;4.10;1.10;;;32.20;56.90;;;;;;5056749;28;20024;-93
2021/08/03 07:28:02;;;;;;;3.90;1.10;;;32.80;53.60;;;;;;5039469;28;20025;-92
2021/08/03 07:30:28;;;;;;;4.10;1.20;;;32.10;53.40;;;;;;5042728;28;20028;-93
2021/08/03 07:32:54;;;;;;;2.83;1.17;;;30.50;54.10;;;;;;5059349;28;20089;-92
2021/08/03 07:35:20;;;;;;;2.85;1.08;;;29.30;58.40;;;;;;5068976;28;20017;-92
2021/08/03 07:37:46;;;;;;;2.17;0.90;;;28.50;60.80;;;;;;5044867;28;20027;-93
2021/08/03 07:40:13;;;;;;;4.03;1.35;;;27.70;61.70;;;;;;5048396;28;20020;-92
2021/08/03 07:42:42;;;;;;;3.10;1.37;;;27.10;65.30;;;;;;5066975;28;20040;-90
2021/08/03 07:45:16;;;;;;;6.15;1.77;;;26.60;65.90;;;;;;5028881;28;20035;-92
2021/08/03 07:47:42;;;;;;;1.80;1.20;;;27.20;66.60;;;;;;5030004;28;20486;-91
2021/08/03 07:50:11;;;;;;;2.80;1.27;;;28.00;63.20;;;;;;5045665;28;20021;-92
2021/08/03 07:52:37;;;;;;;5.65;1.73;;;28.30;61.80;;;;;;5053803;28;20052;-90
2021/08/03 07:55:04;;;;;;;3.72;1.30;;;27.90;61.10;;;;;;5076751;28;20016;-91
2021/08/03 07:57:30;;;;;;;2.75;1.58;;;27.30;63.50;;;;;;5050761;28;20478;-92
2021/08/03 07:59:56;;;;;;;2.85;1.17;;;27.00;64.20;;;;;;5045660;28;20017;-92
2021/08/03 08:02:23;;;;;;;4.88;1.20;;;26.80;63.30;;;;;;5061523;28;20363;-91
2021/08/03 08:04:49;;;;;;;2.28;0.90;;;26.50;63.70;;;;;;5043653;28;20032;-94
2021/08/03 08:07:15;;;;;;;5.22;1.23;;;25.70;66.00;;;;;;5047880;28;20024;-93
2021/08/03 08:09:41;;;;;;;3.92;1.30;;;25.50;67.80;;;;;;5068551;28;20021;-92
2021/08/03 08:12:07;;;;;;;4.65;1.88;;;25.60;69.00;;;;;;5051100;28;20023;-91
2021/08/03 08:14:34;;;;;;;4.38;1.60;;;25.90;68.50;;;;;;5047636;28;20041;-92
2021/08/03 08:17:02;;;;;;;4.00;1.13;;;25.60;67.30;;;;;;5044338;28;20017;-94
2021/08/03 08:19:29;;;;;;;3.72;1.50;;;25.30;68.90;;;;;;5061547;28;20055;-91
2021/08/03 08:21:55;;;;;;;2.10;1.48;;;25.10;68.60;;;;;;5043725;28;20031;-91
2021/08/03 08:24:21;;;;;;;7.13;1.38;;;24.80;69.30;;;;;;5052636;28;20029;-92
2021/08/03 08:26:47;;;;;;;1.67;1.40;;;24.80;70.60;;;;;;5045685;28;20025;-93
2021/08/03 08:29:17;;;;;;;4.70;1.50;;;25.30;69.90;;;;;;5047751;28;20363;-94
2021/08/03 08:31:46;;;;;;;3.08;1.67;;;25.40;69.20;;;;;;5050629;28;20112;-94
2021/08/03 08:34:16;;;;;;;4.35;1.50;;;26.20;68.00;;;;;;5077033;28;20013;-92
2021/08/03 08:36:42;;;;;;;5.22;1.50;;;26.40;66.50;;;;;;5033586;28;20034;-92
2021/08/03 08:39:08;;;;;;;1.60;1.17;;;26.20;64.30;;;;;;5032388;28;20097;-92
2021/08/03 08:41:35;;;;;;;3.10;1.40;;;25.60;64.10;;;;;;5023913;28;20052;-92
2021/08/03 08:44:02;;;;;;;3.35;1.30;;;24.90;66.30;;;;;;5032054;28;20151;-94
2021/08/03 08:46:40;;;;;;;2.13;0.90;;;24.50;69.80;;;;;;5018365;28;20487;-93
2021/08/03 08:49:07;;;;;;;2.15;1.50;;;24.30;68.70;;;;;;5002994;28;20034;-92
2021/08/03 08:51:33;;;;;;;2.65;1.70;;;26.10;67.90;;;;;;5015929;28;20030;-94
2021/08/03 08:54:01;;;;;;;2.45;1.30;;;27.60;64.90;;;;;;5017991;28;20029;-90
2021/08/03 08:56:28;;;;;;;2.58;1.20;;;28.90;59.40;;;;;;5000779;28;20041;-92
2021/08/03 08:58:55;;;;;;;2.50;1.10;;;29.00;56.00;;;;;;5016437;28;20423;-92
2021/08/03 09:01:21;;;;;;;3.80;1.63;;;28.40;55.70;;;;;;5014109;28;20160;-92
2021/08/03 09:03:47;;;;;;;2.97;1.53;;;27.20;57.10;;;;;;5005088;28;20038;-92
2021/08/03 09:06:20;;;;;;;2.80;1.55;;;26.70;61.30;;;;;;5020589;28;20030;-92
2021/08/03 09:08:47;;;;;;;4.60;1.67;;;26.70;60.60;;;;;;5022615;28;20161;-92
2021/08/03 09:11:15;;;;;;;2.65;1.23;;;27.40;60.40;;;;;;5019182;28;20443;-91
2021/08/03 09:13:48;;;;;;;3.15;1.30;;;29.20;57.30;;;;;;5029831;28;20182;-92
2021/08/03 09:16:14;;;;;;;1.42;1.17;;;32.30;53.10;;;;;;5026202;28;20033;-92
2021/08/03 09:18:43;;;;;;;1.35;0.93;;;35.40;55.50;;;;;;5038772;28;20063;-91
2021/08/03 09:21:29;;;;;;;2.22;1.00;;;35.50;43.00;;;;;;5003843;28;20041;-90
2021/08/03 09:24:01;;;;;;;2.50;0.98;;;34.70;43.60;;;;;;5041160;28;20033;-91
2021/08/03 09:26:43;;;;;;;2.97;1.20;;;33.40;41.00;;;;;;5046833;28;20114;-91
2021/08/03 09:29:11;;;;;;;6.03;2.95;;;31.70;45.40;;;;;;5056586;28;20397;-89
2021/08/03 09:31:41;;;;;;;1.83;1.13;;;31.20;46.90;;;;;;5049970;28;20025;-91
2021/08/03 09:34:12;;;;;;;2.75;1.10;;;31.50;45.60;;;;;;5063440;28;20044;-90
2021/08/03 09:36:49;;;;;;;2.67;1.58;;;31.00;45.70;;;;;;5065457;28;20021;-91
2021/08/03 09:39:39;;;;;;;3.53;1.60;;;30.10;47.30;;;;;;5060881;28;20033;-92
2021/08/03 09:42:08;;;;;;;3.28;1.33;;;29.50;48.30;;;;;;5059617;28;20049;-94
2021/08/03 09:44:38;;;;;;;5.88;1.90;;;28.60;48.60;;;;;;5047969;28;20025;-93
2021/08/03 09:47:04;;;;;;;6.57;1.83;;;27.90;50.10;;;;;;5047090;28;20025;-93
2021/08/03 09:49:41;;;;;;;3.55;1.67;;;27.50;51.10;;;;;;5065981;28;20079;-93
2021/08/03 09:52:14;;;;;;;2.58;1.65;;;27.00;51.00;;;;;;5058016;28;20101;-93
2021/08/03 09:54:41;;;;;;;2.72;1.63;;;26.90;51.60;;;;;;5030267;28;20021;-95
2021/08/03 09:57:27;;;;;;;4.78;1.55;;;26.50;53.00;;;;;;5053819;28;20025;-94
2021/08/03 09:59:57;;;;;;;4.13;1.60;;;26.10;53.20;;;;;;5069114;28;20405;-91
2021/08/03 10:02:25;;;;;;;2.67;1.70;;;25.60;53.70;;;;;;5047502;28;20021;-92
2021/08/03 10:04:54;;;;;;;3.22;1.55;;;25.10;54.30;;;;;;5046952;28;20380;-94
2021/08/03 10:07:20;;;;;;;4.28;1.85;;;25.00;54.90;;;;;;5075462;28;20029;-92
2021/08/03 10:09:50;;;;;;;4.15;1.80;;;26.10;54.30;;;;;;5073857;28;20047;-92
2021/08/03 10:12:17;;;;;;;2.78;1.40;;;28.30;49.80;;;;;;5041445;28;20022;-93
2021/08/03 10:14:44;;;;;;;5.60;1.95;;;29.70;46.10;;;;;;5054244;28;20052;-95
2021/08/03 10:17:12;;;;;;;4.18;1.10;;;30.90;43.40;;;;;;5042572;28;20029;-91
2021/08/03 10:19:39;;;;;;;2.50;1.00;;;32.10;40.30;;;;;;5043027;28;20135;-91
2021/08/03 10:22:27;;;;;;;3.85;2.75;;;32.20;40.10;;;;;;5060791;28;20437;-94
2021/08/03 10:25:00;;;;;;;6.28;1.60;;;32.40;40.00;;;;;;5062177;28;20059;-92
2021/08/03 10:27:45;;;;;;;2.17;1.70;;;31.40;39.80;;;;;;5051469;28;20025;-94
2021/08/03 10:30:34;;;;;;;3.75;2.05;;;29.80;42.30;;;;;;5066251;28;20501;-92
2021/08/03 10:33:05;;;;;;;2.60;1.73;;;29.20;43.10;;;;;;5053405;28;20038;-90
2021/08/03 10:35:42;;;;;;;6.38;2.30;;;28.10;43.80;;;;;;5058081;28;20017;-92
2021/08/03 10:38:12;;;;;;;4.15;1.75;;;27.10;46.20;;;;;;5043632;28;20021;-93
2021/08/03 10:40:44;;;;;;;3.78;2.05;;;26.60;47.60;;;;;;5041874;28;20048;-92
2021/08/03 10:43:19;;;;;;;4.65;2.05;;;26.10;48.70;;;;;;5057797;28;20117;-93
2021/08/03 10:45:46;;;;;;;6.28;2.25;;;25.60;50.30;;;;;;5056393;28;20056;-93
2021/08/03 10:48:30;;;;;;;;;;;25.50;50.80;;;;;;5047175;28;20037;-92
2021/08/03 10:50:57;;;;;;;5.70;2.78;;;25.50;50.30;;;;;;5051831;28;20091;-93
2021/08/03 10:54:07;;;;;;;3.70;2.10;;;25.60;50.40;;;;;;5067701;28;20025;-92
2021/08/03 10:56:52;;;;;;;4.60;2.45;;;25.80;50.20;;;;;;5052266;28;20030;-90
2021/08/03 10:59:35;;;;;;;4.55;2.78;;;25.90;50.20;;;;;;5040556;28;20036;-94
2021/08/03 11:02:04;;;;;;;4.90;2.58;;;;;;;;;;5046605;28;20085;-95
2021/08/03 11:04:46;;;;;;;4.10;2.08;;;25.50;50.70;;;;;;5038910;28;20037;-94
2021/08/03 11:07:36;;;;;;;5.25;2.20;;;25.30;50.80;;;;;;5071637;28;20017;-96
2021/08/03 11:10:25;;;;;;;3.95;2.47;;;25.30;51.40;;;;;;5056160;28;20101;-92
2021/08/03 11:12:56;;;;;;;3.15;1.98;;;25.30;51.90;;;;;;5054541;22;20048;-95
2021/08/03 11:15:21;;;;;;;4.35;2.63;;;25.20;51.40;;;;;;5066367;28;20013;-95
2021/08/03 11:18:18;;;;;;;4.53;2.80;;;25.20;51.30;;;;;;5053847;28;20077;-96
2021/08/03 11:21:00;;;;;;;5.22;2.80;;;25.20;50.70;;;;;;5021390;28;20547;-93
2021/08/03 11:24:05;;;;;;;3.95;2.00;;;24.90;50.70;;;;;;5034288;28;20071;-93
2021/08/03 11:26:51;;;;;;;3.83;2.53;;;24.60;51.40;;;;;;5072015;28;20021;-93
2021/08/03 11:29:18;;;;;;;5.05;2.40;;;;;;;;;;5059335;28;20028;-94
2021/08/03 11:31:57;;;;;;;4.32;2.85;;;24.70;52.30;;;;;;5047449;28;20017;-92
2021/08/03 11:34:38;;;;;;;5.10;2.85;;;24.80;52.40;;;;;;5071051;28;20016;-94
2021/08/03 11:37:06;;;;;;;3.10;1.83;;;25.00;51.90;;;;;;5042327;28;20024;-93
2021/08/03 11:39:41;;;;;;;3.63;2.40;;;25.10;50.50;;;;;;5032674;28;20164;-94
2021/08/03 11:42:11;;;;;;;8.18;3.83;;;25.10;51.40;;;;;;5026741;28;20018;-92
2021/08/03 11:44:38;;;;;;;7.70;2.88;;;25.10;52.50;;;;;;5026310;28;20034;-94
2021/08/03 11:47:10;;;;;;;4.50;2.70;;;25.20;52.20;;;;;;5023096;28;20026;-90
2021/08/03 11:49:45;;;;;;;6.65;3.00;;;25.00;51.70;;;;;;5021763;28;20786;-93
2021/08/03 11:52:14;;;;;;;5.38;2.30;;;24.90;52.80;;;;;;4991740;28;20031;-95
2021/08/03 11:54:43;;;;;;;4.03;2.30;;;25.00;53.40;;;;;;4952822;28;20038;-94
2021/08/03 11:57:29;;;;;;;3.78;1.90;;;25.30;51.30;;;;;;4970238;28;20128;-93
2021/08/03 11:59:59;;;;;;;3.20;2.40;;;25.50;52.00;;;;;;5002606;28;20050;-92
2021/08/03 12:02:26;;;;;;;2.47;2.03;;;25.50;51.40;;;;;;4988904;28;20035;-95
2021/08/03 12:05:11;;;;;;;4.25;2.17;;;25.50;51.00;;;;;;4983905;28;20066;-90
2021/08/03 12:07:39;;;;;;;3.95;2.53;;;25.50;50.50;;;;;;4987488;28;20050;-92
2021/08/03 12:10:09;;;;;;;4.13;1.98;;;25.30;50.30;;;;;;4986861;28;20061;-94
2021/08/03 12:12:40;;;;;;;6.32;2.38;;;25.20;50.60;;;;;;4965174;28;20078;-93
2021/08/03 12:15:10;;;;;;;5.50;2.70;;;25.10;50.30;;;;;;5002324;28;20042;-93
2021/08/03 12:17:37;;;;;;;8.10;6.55;;;25.20;50.80;;;;;;4996798;28;20142;-92
2021/08/03 12:20:23;;;;;;;7.07;2.33;;;25.20;51.10;;;;;;5020165;28;20103;-93
2021/08/03 12:22:51;;;;;;;5.00;2.65;;;25.20;50.80;;;;;;5026672;28;20038;-94
2021/08/03 12:25:18;;;;;;;5.43;2.70;;;25.10;50.90;;;;;;5019397;28;20026;-92
2021/08/03 12:27:45;;;;;;;7.30;2.63;;;25.00;52.50;;;;;;5036792;28;20132;-93
2021/08/03 12:30:33;;;;;;;5.35;2.55;;;25.10;52.00;;;;;;5048771;28;20107;-92
2021/08/03 12:33:00;;;;;;;4.25;2.78;;;25.10;52.50;;;;;;5046695;28;20057;-92
2021/08/03 12:35:26;;;;;;;4.65;2.88;;;25.10;51.60;;;;;;5043607;28;20073;-91
2021/08/03 12:37:53;;;;;;;5.22;2.50;;;25.10;52.00;;;;;;5055019;28;20074;-94
2021/08/03 12:40:32;;;;;;;;;;;25.10;51.90;;;;;;5010425;28;20018;-93
2021/08/03 12:43:00;;;;;;;4.43;2.35;;;25.10;52.20;;;;;;5020547;28;20012;-92
2021/08/03 12:45:26;;;;;;;;;;;25.00;53.60;;;;;;5043528;28;20028;-91
2021/08/03 12:48:01;;;;;;;3.92;2.67;;;24.80;51.60;;;;;;5049040;28;19936;-93
2021/08/03 12:50:27;;;;;;;5.70;2.10;;;24.70;52.30;;;;;;4984060;28;20054;-92
2021/08/03 12:52:58;;;;;;;3.92;2.30;;;24.70;51.40;;;;;;4999406;28;20126;-92
2021/08/03 12:55:31;;;;;;;4.85;2.72;;;24.70;51.20;;;;;;4980636;28;20049;-93
2021/08/03 12:57:59;;;;;;;5.28;2.30;;;24.80;52.00;;;;;;4997659;28;20030;-92
2021/08/03 13:00:40;;;;;;;1.95;1.73;;;24.80;51.10;;;;;;5003339;28;20061;-94
2021/08/03 13:03:11;;;;;;;4.55;2.28;;;24.80;50.30;;;;;;4996424;28;20039;-92
2021/08/03 13:05:38;;;;;;;2.50;1.95;;;24.90;50.40;;;;;;4989197;28;20031;-95